This is the latest recevied weather packets stored in our database for station/object KE5OYL. If no packets are shown the sender has not sent any weather packets the latest 10 day(s).
| Time | Temp. | Humidity | Pressure | Rain* | Wind** | Luminosity | Snow |
|---|---|---|---|---|---|---|---|
| 1787850911 | 33.33° C | 55% | 1016.3 hPa | 0 mm | - | 718 W/m² | - |
| 1787850607 | 33.89° C | 53% | 1016.3 hPa | 0 mm | - | 708 W/m² | - |
| 1787850301 | 34.44° C | 53% | 1016.2 hPa | 0 mm | - | 702 W/m² | - |
| 1787849996 | 33.89° C | 54% | 1016.3 hPa | 0 mm | - | 689 W/m² | - |
| 1787849690 | 33.89° C | 55% | 1016.5 hPa | 0 mm | - | 683 W/m² | - |
| 1787849385 | 33.33° C | 54% | 1016.5 hPa | 0 mm | - | 674 W/m² | - |
| 1787849079 | 32.78° C | 58% | 1016.6 hPa | 0 mm | - | 661 W/m² | - |
| 1787848773 | 32.78° C | 57% | 1016.6 hPa | 0 mm | - | 658 W/m² | - |
| 1787848478 | 33.33° C | 57% | 1016.6 hPa | 0 mm | - | 647 W/m² | - |
| 1787848167 | 32.22° C | 59% | 1016.6 hPa | 0 mm | - | 636 W/m² | - |
| 1787847862 | 32.22° C | 59% | 1016.6 hPa | 0 mm | - | 626 W/m² | - |
| 1787847557 | 32.22° C | 60% | 1016.4 hPa | 0 mm | - | 611 W/m² | - |
| 1787847253 | 32.22° C | 59% | 1016.7 hPa | 0 mm | - | 602 W/m² | - |
| 1787846950 | 32.22° C | 59% | 1016.5 hPa | 0 mm | - | 589 W/m² | - |
| 1787846649 | 31.67° C | 61% | 1016.6 hPa | 0 mm | - | 577 W/m² | - |
| 1787846344 | 32.22° C | 60% | 1016.5 hPa | 0 mm | - | 562 W/m² | - |
| 1787846040 | 31.67° C | 60% | 1016.8 hPa | 0 mm | - | 550 W/m² | - |
| 1787845736 | 31.67° C | 61% | 1016.2 hPa | 0 mm | - | 535 W/m² | - |
| 1787845435 | 30.56° C | 64% | 1016.3 hPa | 0 mm | - | 526 W/m² | - |
| 1787845131 | 31.11° C | 62% | 1016.4 hPa | 0 mm | - | 510 W/m² | - |
| 1787844827 | 31.11° C | 63% | 1016.4 hPa | 0 mm | - | 496 W/m² | - |
| 1787844526 | 30.56° C | 65% | 1016.4 hPa | 0 mm | - | 483 W/m² | - |
| 1787844221 | 30.56° C | 63% | 1016.3 hPa | 0 mm | - | 466 W/m² | - |
| 1787843919 | 30.56° C | 64% | 1016.4 hPa | 0 mm | - | 450 W/m² | - |
| 1787843615 | 30° C | 66% | 1016.1 hPa | 0 mm | - | 434 W/m² | - |
* Rain latest hour (hover to see other rain measurements)
** Current wind speed in m/s (hover to see current wind gust speed)